Time;durP1;ratioP1;P1;durP2;ratioP2;P2;SDS_P1;SDS_P2;PMS_P1;PMS_P2;Temp;Humidity;BMP_temperature;BMP_pressure;BME280_temperature;BME280_humidity;BME280_pressure;Samples;Min_cycle;Max_cycle;Signal;HPM_P1;HPM_P2
2022/06/10 00:00:49;;;;;;;2.38;1.80;;;16.00;99.90;;;;;;5044056;28;20212;-79
2022/06/10 00:03:17;;;;;;;3.08;2.08;;;16.00;99.90;;;;;;5052740;28;20243;-79
2022/06/10 00:05:47;;;;;;;2.60;1.70;;;16.00;99.90;;;;;;5050971;28;20260;-79
2022/06/10 00:08:16;;;;;;;2.22;1.55;;;16.00;99.90;;;;;;5052562;28;20246;-79
2022/06/10 00:10:45;;;;;;;2.40;1.83;;;16.00;99.90;;;;;;5054202;28;20187;-79
2022/06/10 00:13:14;;;;;;;2.45;2.03;;;16.00;99.90;;;;;;5055113;28;20197;-79
2022/06/10 00:15:40;;;;;;;2.38;1.65;;;16.00;99.90;;;;;;5045457;28;20181;-81
2022/06/10 00:18:07;;;;;;;2.92;1.80;;;16.00;99.90;;;;;;5052732;28;20189;-78
2022/06/10 00:20:33;;;;;;;2.30;1.80;;;16.00;99.90;;;;;;5054368;28;20244;-79
2022/06/10 00:23:03;;;;;;;2.45;1.77;;;16.00;99.90;;;;;;5056223;28;20229;-81
2022/06/10 00:25:29;;;;;;;2.20;2.00;;;15.90;99.90;;;;;;5049217;28;20176;-80
2022/06/10 00:27:55;;;;;;;4.13;2.00;;;15.90;99.90;;;;;;5057750;28;20216;-80
2022/06/10 00:30:28;;;;;;;2.47;1.73;;;15.90;99.90;;;;;;5057656;28;20165;-80
2022/06/10 00:32:57;;;;;;;2.38;1.67;;;15.80;99.90;;;;;;5056463;28;20221;-80
2022/06/10 00:35:26;;;;;;;2.00;1.77;;;15.80;99.90;;;;;;5087179;28;20173;-81
2022/06/10 00:37:56;;;;;;;2.15;1.83;;;15.80;99.90;;;;;;5056846;28;20250;-80
2022/06/10 00:40:28;;;;;;;2.95;1.80;;;15.70;99.90;;;;;;5055515;28;20201;-80
2022/06/10 00:42:57;;;;;;;4.45;2.03;;;15.70;99.90;;;;;;5053364;28;20231;-78
2022/06/10 00:45:53;;;;;;;2.50;1.80;;;15.70;99.90;;;;;;5056788;28;20181;-80
2022/06/10 00:48:31;;;;;;;2.78;1.92;;;15.70;99.90;;;;;;5051476;28;20184;-80
2022/06/10 00:51:03;;;;;;;2.50;1.88;;;15.60;99.90;;;;;;5055101;28;20260;-80
2022/06/10 00:53:34;;;;;;;3.20;1.77;;;15.60;99.90;;;;;;5046735;28;20201;-79
2022/06/10 00:56:04;;;;;;;2.60;1.88;;;15.50;99.90;;;;;;5048526;28;20234;-78
2022/06/10 00:58:52;;;;;;;2.35;1.90;;;15.50;99.90;;;;;;5055955;28;20195;-80
2022/06/10 01:01:22;;;;;;;2.75;1.77;;;15.50;99.90;;;;;;5053567;28;20205;-80
2022/06/10 01:03:52;;;;;;;2.10;1.80;;;15.40;99.90;;;;;;5056459;28;20263;-81
2022/06/10 01:06:21;;;;;;;3.15;1.70;;;15.40;99.90;;;;;;5089963;28;20193;-79
2022/06/10 01:08:49;;;;;;;3.70;1.80;;;15.30;99.90;;;;;;5056965;28;20176;-80
2022/06/10 01:11:39;;;;;;;3.60;2.00;;;15.30;99.90;;;;;;5050984;28;20223;-80
2022/06/10 01:14:10;;;;;;;2.60;2.00;;;15.30;99.90;;;;;;5060604;28;20280;-80
2022/06/10 01:16:54;;;;;;;2.08;1.77;;;15.30;99.90;;;;;;5049698;28;20193;-79
2022/06/10 01:19:29;;;;;;;2.13;1.80;;;15.20;99.90;;;;;;5046822;28;20199;-78
2022/06/10 01:22:15;;;;;;;3.38;1.90;;;15.30;99.90;;;;;;5054497;28;20200;-80
2022/06/10 01:25:01;;;;;;;2.92;1.80;;;15.20;99.90;;;;;;5051457;28;20260;-79
2022/06/10 01:27:59;;;;;;;3.75;2.08;;;15.20;99.90;;;;;;5071137;28;20204;-79
2022/06/10 01:30:58;;;;;;;1.90;1.80;;;15.20;99.90;;;;;;5054733;28;20314;-82
2022/06/10 01:33:39;;;;;;;2.00;1.70;;;15.10;99.90;;;;;;5049752;28;20201;-80
2022/06/10 01:36:16;;;;;;;3.00;2.22;;;15.10;99.90;;;;;;5067328;28;20178;-77
2022/06/10 01:39:08;;;;;;;3.78;1.85;;;15.10;99.90;;;;;;5055289;28;20173;-81
2022/06/10 01:41:57;;;;;;;2.75;1.85;;;15.00;99.90;;;;;;5082057;28;20229;-81
2022/06/10 01:44:32;;;;;;;3.63;2.10;;;15.00;99.90;;;;;;5070178;28;20212;-79
2022/06/10 01:47:04;;;;;;;2.45;2.20;;;15.00;99.90;;;;;;5083884;28;20251;-76
2022/06/10 01:49:49;;;;;;;2.20;2.00;;;14.90;99.90;;;;;;5055110;28;20169;-79
2022/06/10 01:52:48;;;;;;;2.38;2.03;;;14.90;99.90;;;;;;5051140;28;20201;-79
2022/06/10 01:56:12;;;;;;;2.83;2.03;;;14.90;99.90;;;;;;5050854;28;20196;-80
2022/06/10 01:59:03;;;;;;;1.90;1.77;;;14.90;99.90;;;;;;5055088;28;20196;-80
2022/06/10 02:01:35;;;;;;;3.65;2.20;;;14.80;99.90;;;;;;5049574;28;20212;-79
2022/06/10 02:04:16;;;;;;;2.80;1.83;;;14.80;99.90;;;;;;5083498;28;20170;-76
2022/06/10 02:07:04;;;;;;;2.58;2.10;;;14.80;99.90;;;;;;5050983;28;20211;-79
2022/06/10 02:09:53;;;;;;;3.00;2.25;;;14.80;99.90;;;;;;5052762;28;20239;-80
2022/06/10 02:12:30;;;;;;;4.53;2.13;;;14.80;99.90;;;;;;5050305;28;20200;-81
2022/06/10 02:15:04;;;;;;;2.10;1.90;;;14.70;99.90;;;;;;5083932;28;20189;-80
2022/06/10 02:17:37;;;;;;;2.88;2.28;;;14.70;99.90;;;;;;5052319;28;20174;-81
2022/06/10 02:20:05;;;;;;;2.13;1.92;;;14.70;99.90;;;;;;5053550;28;20181;-80
2022/06/10 02:22:39;;;;;;;2.50;1.98;;;14.70;99.90;;;;;;5055494;28;20193;-80
2022/06/10 02:25:07;;;;;;;2.88;2.08;;;14.60;99.90;;;;;;5057279;28;20173;-79
2022/06/10 02:27:40;;;;;;;2.53;2.30;;;14.60;99.90;;;;;;5053141;28;20197;-78
2022/06/10 02:30:37;;;;;;;2.65;2.17;;;14.60;99.90;;;;;;5050470;28;20177;-80
2022/06/10 02:33:03;;;;;;;3.05;2.05;;;14.60;99.90;;;;;;5053004;28;20205;-81
2022/06/10 02:35:43;;;;;;;2.58;2.08;;;14.60;99.90;;;;;;5047309;28;20170;-77
2022/06/10 02:38:19;;;;;;;2.22;2.08;;;14.60;99.90;;;;;;5051114;28;20304;-80
2022/06/10 02:41:08;;;;;;;2.35;2.15;;;14.60;99.90;;;;;;5048761;28;20201;-80
2022/06/10 02:43:40;;;;;;;2.75;2.15;;;14.60;99.90;;;;;;5069707;28;20181;-79
2022/06/10 02:46:13;;;;;;;3.55;2.20;;;14.60;99.90;;;;;;5053138;28;20181;-80
2022/06/10 02:48:50;;;;;;;2.58;2.30;;;14.60;99.90;;;;;;5049818;28;20243;-81
2022/06/10 02:51:16;;;;;;;3.40;2.38;;;14.60;99.90;;;;;;5053637;28;20169;-80
2022/06/10 02:53:42;;;;;;;3.08;2.20;;;14.60;99.90;;;;;;5054422;28;20188;-79
2022/06/10 02:56:25;;;;;;;2.65;2.22;;;14.60;99.90;;;;;;5054369;28;20203;-81
2022/06/10 03:02:08;;;;;;;3.75;2.40;;;14.60;99.90;;;;;;5054269;28;20296;-80
2022/06/10 03:04:37;;;;;;;3.38;2.20;;;14.60;99.90;;;;;;5052205;28;20166;-80
2022/06/10 03:07:11;;;;;;;2.30;2.10;;;14.50;99.90;;;;;;5066510;28;20212;-79
2022/06/10 03:09:56;;;;;;;4.88;2.20;;;14.50;99.90;;;;;;5053757;28;20216;-80
2022/06/10 03:12:36;;;;;;;2.58;2.20;;;14.50;99.90;;;;;;5065197;28;20265;-80
2022/06/10 03:15:27;;;;;;;2.65;2.20;;;14.50;99.90;;;;;;5052777;28;20200;-79
2022/06/10 03:18:15;;;;;;;3.88;2.17;;;14.50;99.90;;;;;;5066629;28;20201;-79
2022/06/10 03:21:10;;;;;;;3.20;2.38;;;14.40;99.90;;;;;;5051886;28;20186;-78
2022/06/10 03:24:23;;;;;;;2.85;2.40;;;14.50;99.90;;;;;;5049447;28;20198;-81
2022/06/10 03:27:19;;;;;;;3.10;2.25;;;14.40;99.90;;;;;;5035712;28;20165;-80
2022/06/10 03:29:59;;;;;;;2.85;2.58;;;14.40;99.90;;;;;;5038062;28;20209;-80
2022/06/10 03:32:33;;;;;;;3.95;2.70;;;14.40;99.90;;;;;;5050914;28;20173;-81
2022/06/10 03:35:09;;;;;;;3.47;2.88;;;14.40;99.90;;;;;;5054366;28;20205;-79
2022/06/10 03:37:38;;;;;;;3.25;2.95;;;14.40;99.90;;;;;;5043321;28;20176;-80
2022/06/10 03:40:05;;;;;;;4.72;3.50;;;14.40;99.90;;;;;;5051853;28;20202;-79
2022/06/10 03:42:31;;;;;;;6.82;5.18;;;14.30;99.90;;;;;;5052402;28;20202;-78
2022/06/10 03:44:58;;;;;;;6.75;5.20;;;14.40;99.90;;;;;;5050898;28;20263;-80
2022/06/10 03:47:32;;;;;;;5.60;3.95;;;14.30;99.90;;;;;;5056758;28;20173;-78
2022/06/10 03:50:03;;;;;;;4.13;3.70;;;14.30;99.90;;;;;;5040332;28;20169;-80
2022/06/10 03:52:33;;;;;;;3.67;3.00;;;14.40;99.90;;;;;;5079083;28;20181;-79
2022/06/10 03:55:01;;;;;;;3.35;2.88;;;14.40;99.90;;;;;;5049250;28;20194;-77
2022/06/10 03:57:27;;;;;;;3.40;3.00;;;14.30;99.90;;;;;;5055928;28;20173;-77
2022/06/10 03:59:52;;;;;;;3.58;2.40;;;14.40;99.90;;;;;;5057532;28;20192;-77
2022/06/10 04:02:21;;;;;;;3.40;3.00;;;14.40;99.90;;;;;;5057044;28;20197;-76
2022/06/10 04:04:46;;;;;;;4.45;2.63;;;14.40;99.90;;;;;;5051939;28;20814;-79
2022/06/10 04:07:16;;;;;;;3.63;2.80;;;14.50;99.90;;;;;;5052643;28;20169;-79
2022/06/10 04:09:42;;;;;;;3.88;2.80;;;14.50;99.90;;;;;;5084627;28;20184;-78
2022/06/10 04:12:08;;;;;;;4.15;2.90;;;14.60;99.90;;;;;;5048199;28;20182;-77
2022/06/10 04:14:34;;;;;;;3.33;2.47;;;14.60;99.90;;;;;;5067891;28;20193;-80
2022/06/10 04:17:00;;;;;;;3.05;2.30;;;14.70;99.90;;;;;;5046871;28;20227;-79
2022/06/10 04:19:29;;;;;;;4.43;2.58;;;14.70;99.90;;;;;;5045397;28;20232;-79
2022/06/10 04:21:57;;;;;;;3.38;2.60;;;14.80;99.90;;;;;;5052225;28;20215;-79
2022/06/10 04:24:25;;;;;;;3.65;2.50;;;14.80;99.90;;;;;;5053117;28;20342;-79
2022/06/10 04:26:54;;;;;;;3.88;2.35;;;14.80;99.90;;;;;;5045847;28;20197;-76
2022/06/10 04:29:22;;;;;;;3.92;2.80;;;14.80;99.90;;;;;;5046425;28;20273;-77
2022/06/10 04:31:48;;;;;;;4.03;2.72;;;14.80;99.90;;;;;;5049383;28;20196;-80
2022/06/10 04:34:16;;;;;;;3.65;2.53;;;14.80;99.90;;;;;;5047350;28;20194;-78
2022/06/10 04:36:42;;;;;;;3.35;2.95;;;14.80;99.90;;;;;;5052491;28;20189;-78
2022/06/10 04:39:11;;;;;;;3.75;2.70;;;14.90;99.90;;;;;;5082589;28;20197;-80
2022/06/10 04:41:37;;;;;;;3.45;2.47;;;14.90;99.90;;;;;;5078765;28;20190;-78
2022/06/10 04:44:06;;;;;;;2.90;2.60;;;14.90;99.90;;;;;;5051290;28;20166;-76
2022/06/10 04:46:42;;;;;;;2.70;2.50;;;14.90;99.90;;;;;;5052797;28;20197;-77
2022/06/10 04:49:10;;;;;;;2.60;2.40;;;14.90;99.90;;;;;;5051076;28;20296;-82
2022/06/10 04:51:37;;;;;;;4.35;2.80;;;14.90;99.90;;;;;;5047956;28;20201;-81
2022/06/10 04:54:06;;;;;;;3.58;2.83;;;14.90;99.90;;;;;;5049461;28;20209;-79
2022/06/10 04:56:35;;;;;;;4.18;2.80;;;14.90;99.90;;;;;;5054740;28;20173;-76
2022/06/10 04:59:01;;;;;;;3.00;2.30;;;15.00;99.90;;;;;;5050991;28;20212;-77
2022/06/10 05:01:28;;;;;;;3.20;2.70;;;15.00;99.90;;;;;;5053115;28;20193;-78
2022/06/10 05:03:57;;;;;;;4.68;2.83;;;15.00;99.90;;;;;;5047266;28;20210;-78
2022/06/10 05:06:27;;;;;;;6.97;3.00;;;15.10;99.90;;;;;;5050346;28;20260;-78
2022/06/10 05:08:55;;;;;;;3.50;2.75;;;15.10;99.90;;;;;;5052010;28;20182;-79
2022/06/10 05:11:20;;;;;;;3.88;2.80;;;15.10;99.90;;;;;;5054388;28;20240;-76
2022/06/10 05:13:48;;;;;;;4.72;2.85;;;15.20;99.90;;;;;;5087672;28;20230;-78
2022/06/10 05:16:14;;;;;;;4.15;2.90;;;15.20;99.90;;;;;;5057231;28;20181;-79
2022/06/10 05:18:39;;;;;;;3.75;3.20;;;15.30;99.90;;;;;;5059414;28;20210;-77
2022/06/10 05:21:05;;;;;;;4.90;3.47;;;15.30;99.90;;;;;;5060348;28;20259;-79
2022/06/10 05:23:31;;;;;;;3.53;3.10;;;15.40;99.90;;;;;;5058100;28;20206;-79
2022/06/10 05:26:02;;;;;;;4.15;3.30;;;15.40;99.90;;;;;;5054242;28;20244;-79
2022/06/10 05:28:27;;;;;;;4.70;3.40;;;15.50;99.90;;;;;;5054293;28;20182;-78
2022/06/10 05:30:56;;;;;;;3.78;3.30;;;15.60;99.90;;;;;;5059301;28;20174;-80
2022/06/10 05:34:44;;;;;;;5.57;3.60;;;15.60;99.90;;;;;;5057250;28;20209;-78
2022/06/10 05:36:12;;;;;;;4.50;3.08;;;15.70;99.90;;;;;;5051098;28;20196;-78
2022/06/10 05:38:39;;;;;;;5.28;3.50;;;15.70;99.90;;;;;;5057095;28;20384;-77
2022/06/10 05:42:04;;;;;;;7.40;3.60;;;15.70;99.90;;;;;;5056772;28;20227;-78
2022/06/10 05:43:51;;;;;;;4.15;3.42;;;15.80;99.90;;;;;;5037661;28;20261;-77
2022/06/10 05:46:19;;;;;;;4.68;3.72;;;15.90;99.90;;;;;;5045119;28;20208;-78
2022/06/10 05:48:45;;;;;;;6.40;4.50;;;15.90;99.90;;;;;;5061635;28;20201;-77
2022/06/10 05:51:13;;;;;;;6.97;4.20;;;16.00;99.90;;;;;;5050344;28;20189;-77
2022/06/10 05:53:39;;;;;;;4.97;4.03;;;16.00;99.90;;;;;;5056426;28;20204;-78
2022/06/10 05:56:07;;;;;;;4.85;3.67;;;16.10;99.90;;;;;;5056786;28;20197;-77
2022/06/10 05:58:38;;;;;;;4.88;3.90;;;16.20;99.90;;;;;;5055554;28;20185;-78
2022/06/10 06:01:05;;;;;;;4.57;3.75;;;16.30;99.90;;;;;;5039242;28;20202;-78
2022/06/10 06:03:31;;;;;;;4.53;3.58;;;16.40;99.90;;;;;;5055694;28;20219;-78
2022/06/10 06:05:57;;;;;;;5.15;3.85;;;16.50;99.90;;;;;;5054575;28;20174;-76
2022/06/10 06:08:22;;;;;;;5.53;4.10;;;16.60;99.90;;;;;;5052885;28;20177;-77
2022/06/10 06:10:48;;;;;;;4.57;3.90;;;16.70;99.90;;;;;;5085935;28;20205;-77
2022/06/10 06:13:14;;;;;;;5.28;4.00;;;16.70;99.90;;;;;;5055308;28;20185;-77
2022/06/10 06:15:42;;;;;;;4.15;3.58;;;16.80;99.90;;;;;;5056346;28;20185;-79
2022/06/10 06:18:20;;;;;;;6.03;3.97;;;16.90;99.90;;;;;;5055508;28;20247;-77
2022/06/10 06:20:50;;;;;;;5.40;3.92;;;16.90;99.90;;;;;;5055587;28;20185;-77
2022/06/10 06:23:16;;;;;;;4.40;4.00;;;17.00;99.90;;;;;;5047458;28;20259;-78
2022/06/10 06:25:44;;;;;;;4.53;4.03;;;17.10;99.90;;;;;;5042768;28;20197;-77
2022/06/10 06:28:10;;;;;;;5.30;4.47;;;17.20;99.90;;;;;;5056014;28;20173;-77
2022/06/10 06:30:41;;;;;;;5.22;4.63;;;17.30;99.90;;;;;;5055779;28;20185;-77
2022/06/10 06:33:08;;;;;;;6.60;4.80;;;17.40;99.90;;;;;;5050284;28;20206;-78
2022/06/10 06:35:37;;;;;;;7.35;4.70;;;17.50;99.90;;;;;;5047362;28;20255;-77
2022/06/10 06:38:04;;;;;;;6.40;4.93;;;17.60;99.90;;;;;;5055672;28;20278;-76
2022/06/10 06:40:30;;;;;;;6.82;5.20;;;17.70;99.90;;;;;;5055153;28;20193;-76
2022/06/10 06:43:00;;;;;;;6.18;5.03;;;17.80;99.90;;;;;;5058092;28;20197;-77
2022/06/10 06:45:26;;;;;;;7.78;4.78;;;17.90;99.90;;;;;;5086694;28;20203;-76
2022/06/10 06:47:57;;;;;;;6.13;4.75;;;18.10;99.90;;;;;;5052663;28;20201;-76
2022/06/10 06:50:27;;;;;;;4.88;3.95;;;18.10;99.90;;;;;;5055594;28;20170;-76
2022/06/10 06:52:53;;;;;;;4.60;4.05;;;18.30;99.90;;;;;;5049232;28;20178;-77
2022/06/10 06:55:20;;;;;;;4.20;3.80;;;18.40;99.90;;;;;;5052007;28;20207;-76
2022/06/10 06:57:49;;;;;;;5.65;3.92;;;18.50;99.90;;;;;;5054720;28;20177;-76
2022/06/10 07:00:15;;;;;;;6.07;4.07;;;18.60;99.90;;;;;;5046753;28;20272;-76
2022/06/10 07:02:41;;;;;;;5.00;4.03;;;18.70;99.90;;;;;;5051722;28;20197;-77
2022/06/10 07:05:07;;;;;;;4.45;3.15;;;18.80;99.90;;;;;;5040040;28;20181;-76
2022/06/10 07:07:33;;;;;;;4.60;3.45;;;18.90;99.90;;;;;;5054159;28;20169;-76
2022/06/10 07:09:59;;;;;;;5.13;3.55;;;19.00;99.90;;;;;;5036503;28;20177;-77
2022/06/10 07:12:25;;;;;;;5.07;3.60;;;19.10;99.90;;;;;;5050875;28;20266;-77
2022/06/10 07:14:51;;;;;;;4.88;3.78;;;19.20;99.90;;;;;;5045772;28;20201;-76
2022/06/10 07:17:19;;;;;;;4.15;3.22;;;19.30;99.90;;;;;;5055187;28;20173;-76
2022/06/10 07:19:48;;;;;;;4.18;3.45;;;19.30;99.90;;;;;;5054891;28;20193;-76
2022/06/10 07:22:15;;;;;;;5.20;3.55;;;19.40;99.90;;;;;;5053097;28;20201;-76
2022/06/10 07:24:41;;;;;;;4.93;3.22;;;19.40;99.90;;;;;;5077733;28;20188;-76
2022/06/10 07:27:11;;;;;;;4.55;3.28;;;19.50;99.90;;;;;;5049313;28;20177;-77
2022/06/10 07:29:38;;;;;;;5.18;3.80;;;19.60;99.90;;;;;;5054966;28;20173;-76
2022/06/10 07:32:06;;;;;;;5.07;3.13;;;19.60;99.90;;;;;;5054734;28;20241;-76
2022/06/10 07:34:35;;;;;;;4.78;3.38;;;19.70;99.90;;;;;;5054342;28;20184;-75
2022/06/10 07:37:00;;;;;;;3.78;3.00;;;19.70;99.90;;;;;;5035386;28;20170;-77
2022/06/10 07:39:33;;;;;;;3.92;3.38;;;19.80;99.90;;;;;;5054284;28;20196;-77
2022/06/10 07:42:02;;;;;;;3.95;2.90;;;19.80;99.90;;;;;;5054766;28;20216;-76
2022/06/10 07:44:34;;;;;;;4.25;3.22;;;19.90;99.90;;;;;;5038753;28;20169;-75
2022/06/10 07:47:05;;;;;;;3.95;3.05;;;20.00;99.90;;;;;;5042965;28;20289;-75
2022/06/10 07:49:31;;;;;;;3.13;2.50;;;20.00;99.90;;;;;;5048720;28;20239;-75
2022/06/10 07:51:57;;;;;;;4.07;3.30;;;20.10;99.90;;;;;;5048645;28;20177;-75
2022/06/10 07:54:25;;;;;;;3.83;2.83;;;20.20;99.90;;;;;;5053908;28;20272;-75
2022/06/10 07:56:52;;;;;;;5.97;3.17;;;20.30;99.90;;;;;;5053665;28;20197;-76
2022/06/10 07:59:17;;;;;;;5.05;3.22;;;20.40;99.90;;;;;;5054394;28;20181;-75
2022/06/10 08:01:46;;;;;;;2.72;2.38;;;20.60;99.90;;;;;;5055276;28;20212;-77
2022/06/10 08:04:14;;;;;;;3.33;2.47;;;20.70;99.90;;;;;;5075528;28;20281;-76
2022/06/10 08:06:46;;;;;;;3.58;2.05;;;20.80;99.90;;;;;;5044228;28;20206;-77
2022/06/10 08:09:12;;;;;;;4.55;2.15;;;20.90;99.90;;;;;;5054970;28;20173;-76
2022/06/10 08:11:43;;;;;;;3.88;2.20;;;20.90;99.90;;;;;;5044796;28;20177;-76
2022/06/10 08:14:09;;;;;;;3.33;2.30;;;21.00;99.90;;;;;;5083862;28;20220;-75
2022/06/10 08:16:38;;;;;;;5.05;2.20;;;21.00;99.90;;;;;;5034884;28;20182;-75
2022/06/10 08:19:04;;;;;;;4.28;2.50;;;21.00;99.90;;;;;;5039532;28;20193;-75
2022/06/10 08:24:20;;;;;;;3.10;2.10;;;21.20;99.90;;;;;;5055236;28;20172;-77
2022/06/10 08:26:47;;;;;;;3.05;2.20;;;21.20;99.90;;;;;;5050549;28;20194;-76
2022/06/10 08:29:16;;;;;;;3.53;2.15;;;21.30;99.90;;;;;;5034350;28;20233;-76
2022/06/10 08:31:44;;;;;;;3.85;2.10;;;21.40;99.90;;;;;;5049805;28;20314;-77
2022/06/10 08:34:11;;;;;;;3.08;2.00;;;21.50;99.90;;;;;;5044898;28;20232;-75
2022/06/10 08:36:37;;;;;;;3.17;1.70;;;21.60;99.90;;;;;;5053764;28;20211;-76
2022/06/10 08:39:03;;;;;;;4.10;1.67;;;21.70;99.90;;;;;;5054146;28;20188;-76
2022/06/10 08:41:46;;;;;;;4.60;1.48;;;21.80;99.90;;;;;;5050200;28;20213;-78
2022/06/10 08:44:39;;;;;;;5.15;1.30;;;21.80;99.90;;;;;;5041534;28;20174;-77
2022/06/10 08:47:10;;;;;;;5.18;1.30;;;21.90;99.90;;;;;;5050736;28;20236;-77
2022/06/10 08:50:04;;;;;;;2.75;1.27;;;21.90;99.90;;;;;;5071615;28;20178;-75
2022/06/10 08:52:51;;;;;;;3.20;1.25;;;21.90;99.90;;;;;;5062590;28;20169;-75
2022/06/10 08:55:28;;;;;;;4.85;1.40;;;22.00;99.90;;;;;;5044792;28;20411;-77
2022/06/10 08:57:59;;;;;;;2.47;1.00;;;22.00;99.90;;;;;;5042230;28;20189;-75
2022/06/10 09:00:31;;;;;;;3.05;1.00;;;22.10;99.90;;;;;;5043686;28;20201;-75
2022/06/10 09:03:15;;;;;;;2.67;1.00;;;22.10;99.90;;;;;;5037964;28;20290;-75
2022/06/10 09:05:47;;;;;;;5.28;1.10;;;22.20;99.90;;;;;;5059275;28;20195;-76
2022/06/10 09:08:23;;;;;;;3.40;1.15;;;22.40;99.90;;;;;;5052886;28;20193;-78
2022/06/10 09:10:49;;;;;;;3.67;1.30;;;22.40;99.90;;;;;;5054264;28;20269;-76
2022/06/10 09:13:33;;;;;;;2.65;1.27;;;22.50;99.90;;;;;;5040708;28;20237;-77
2022/06/10 09:16:40;;;;;;;3.22;1.20;;;22.50;99.90;;;;;;5038910;28;20198;-78
2022/06/10 09:19:15;;;;;;;3.35;1.00;;;22.50;99.90;;;;;;5057291;28;20192;-77
2022/06/10 09:22:22;;;;;;;2.45;1.20;;;22.50;99.90;;;;;;5053430;28;20209;-78
2022/06/10 09:25:04;;;;;;;3.97;0.95;;;22.50;99.90;;;;;;5048851;28;20227;-78
2022/06/10 09:27:47;;;;;;;2.58;1.10;;;22.60;99.90;;;;;;5049174;28;20170;-79
2022/06/10 09:30:18;;;;;;;3.05;1.15;;;22.60;99.90;;;;;;5056384;28;20181;-77
2022/06/10 09:32:59;;;;;;;4.45;1.20;;;22.70;99.90;;;;;;5055428;28;20193;-76
2022/06/10 09:35:51;;;;;;;3.75;1.05;;;22.70;99.90;;;;;;5056103;28;20208;-78
2022/06/10 09:38:37;;;;;;;3.05;1.00;;;22.70;99.90;;;;;;5056493;28;20188;-76
2022/06/10 09:41:20;;;;;;;2.10;1.05;;;22.70;99.90;;;;;;5038706;28;20185;-78
2022/06/10 09:44:01;;;;;;;2.25;1.00;;;22.70;99.90;;;;;;5051152;28;20192;-77
2022/06/10 09:47:05;;;;;;;3.95;0.98;;;22.80;99.90;;;;;;5053007;28;20177;-78
2022/06/10 09:49:52;;;;;;;2.40;1.15;;;22.90;99.90;;;;;;5040041;28;20194;-77
2022/06/10 09:52:39;;;;;;;4.25;1.25;;;23.00;99.90;;;;;;5053348;28;20197;-77
2022/06/10 09:55:35;;;;;;;2.33;0.80;;;23.00;99.90;;;;;;5051258;28;20243;-78
2022/06/10 09:58:07;;;;;;;3.20;1.05;;;23.00;99.90;;;;;;5055707;28;20204;-77
2022/06/10 10:00:43;;;;;;;3.15;1.10;;;23.00;99.90;;;;;;5076073;28;20173;-76
2022/06/10 10:03:09;;;;;;;4.75;1.33;;;23.00;99.90;;;;;;5053231;28;20205;-77
2022/06/10 10:06:12;;;;;;;4.43;1.63;;;23.00;99.90;;;;;;5053231;28;20177;-78
2022/06/10 10:09:12;;;;;;;4.05;1.10;;;22.90;99.90;;;;;;5051243;28;20178;-77
2022/06/10 10:12:10;;;;;;;4.35;0.98;;;22.90;99.90;;;;;;5051888;28;20216;-77
2022/06/10 10:15:01;;;;;;;2.53;0.93;;;23.00;99.90;;;;;;5082647;28;20475;-77
2022/06/10 10:17:33;;;;;;;2.13;0.82;;;23.00;99.90;;;;;;5041594;28;20201;-77
2022/06/10 10:20:26;;;;;;;3.45;1.17;;;23.10;99.90;;;;;;5045976;28;20184;-77
2022/06/10 10:23:17;;;;;;;3.38;1.45;;;23.30;99.90;;;;;;5065950;28;20209;-78
2022/06/10 10:25:44;;;;;;;2.33;1.00;;;23.30;99.90;;;;;;5066527;28;20174;-77
2022/06/10 10:28:35;;;;;;;1.60;0.98;;;23.40;99.90;;;;;;5036340;28;20204;-76
2022/06/10 10:31:16;;;;;;;1.92;0.95;;;23.50;99.90;;;;;;5052663;28;20198;-76
2022/06/10 10:33:43;;;;;;;2.90;1.00;;;23.60;99.90;;;;;;5055685;28;20185;-77
2022/06/10 10:36:44;;;;;;;4.05;1.25;;;23.70;99.90;;;;;;5045091;28;20201;-77
2022/06/10 10:39:28;;;;;;;2.78;0.95;;;23.90;99.90;;;;;;5024081;28;20203;-77
2022/06/10 10:42:15;;;;;;;2.35;0.82;;;24.10;99.90;;;;;;5041527;28;20194;-77
2022/06/10 10:44:42;;;;;;;3.15;1.15;;;24.10;99.90;;;;;;5036055;28;20177;-76
2022/06/10 10:47:11;;;;;;;4.93;1.10;;;24.10;99.90;;;;;;5044268;28;20237;-77
2022/06/10 10:49:42;;;;;;;4.20;1.30;;;24.20;99.90;;;;;;5071358;28;20201;-77
2022/06/10 10:52:15;;;;;;;3.42;1.40;;;24.20;99.90;;;;;;5038875;28;20185;-75
2022/06/10 10:54:48;;;;;;;4.95;1.38;;;24.20;99.90;;;;;;5073148;28;20177;-77
2022/06/10 10:57:35;;;;;;;2.95;1.10;;;24.20;99.90;;;;;;5043281;28;20201;-76
2022/06/10 11:00:10;;;;;;;3.00;1.15;;;24.10;99.90;;;;;;5054982;28;20177;-76
2022/06/10 11:02:51;;;;;;;3.17;1.13;;;24.10;99.90;;;;;;5054829;28;20280;-76
2022/06/10 11:05:35;;;;;;;4.32;1.13;;;24.10;99.90;;;;;;5055220;28;20173;-77
2022/06/10 11:08:12;;;;;;;3.45;1.00;;;24.10;99.90;;;;;;5054863;28;20184;-77
2022/06/10 11:11:03;;;;;;;2.70;1.02;;;24.10;99.90;;;;;;5054270;28;20193;-75
2022/06/10 11:13:36;;;;;;;2.00;0.80;;;24.10;99.90;;;;;;5039282;28;20182;-75
2022/06/10 11:16:31;;;;;;;4.00;1.08;;;24.10;99.90;;;;;;5054525;28;20231;-76
2022/06/10 11:19:00;;;;;;;3.05;1.10;;;24.10;99.90;;;;;;5065992;28;20283;-77
2022/06/10 11:21:27;;;;;;;2.10;1.40;;;24.10;99.90;;;;;;5054211;28;20239;-75
2022/06/10 11:23:57;;;;;;;2.45;1.25;;;24.20;99.90;;;;;;5071626;28;20224;-78
2022/06/10 11:26:25;;;;;;;2.28;1.00;;;24.20;99.90;;;;;;5050994;28;20179;-76
2022/06/10 11:29:03;;;;;;;2.65;0.88;;;24.20;99.90;;;;;;5046682;28;20197;-75
2022/06/10 11:31:50;;;;;;;2.22;0.90;;;24.20;99.90;;;;;;5053363;28;20173;-76
2022/06/10 11:34:30;;;;;;;5.00;1.30;;;24.20;99.90;;;;;;5050298;28;20173;-75
2022/06/10 11:36:57;;;;;;;2.30;1.15;;;24.20;99.90;;;;;;5036901;28;20158;-75
2022/06/10 11:39:27;;;;;;;2.45;0.95;;;24.20;99.90;;;;;;5042775;28;20185;-75
2022/06/10 11:42:07;;;;;;;3.08;1.25;;;24.20;99.90;;;;;;5054248;28;20267;-76
2022/06/10 11:44:42;;;;;;;2.83;1.10;;;24.30;99.90;;;;;;5052202;28;20170;-76
2022/06/10 11:47:16;;;;;;;3.50;1.00;;;24.40;99.90;;;;;;5051582;28;20205;-76
2022/06/10 11:49:55;;;;;;;2.60;1.15;;;24.50;99.90;;;;;;5051695;28;20182;-75
2022/06/10 11:52:35;;;;;;;3.40;1.00;;;24.50;99.90;;;;;;5054281;28;20185;-74
2022/06/10 11:55:20;;;;;;;2.40;1.00;;;24.50;99.90;;;;;;5079829;28;20205;-76
2022/06/10 12:01:22;;;;;;;2.72;1.00;;;24.50;99.90;;;;;;5035866;28;20275;-75
2022/06/10 12:04:09;;;;;;;1.95;0.90;;;24.50;99.90;;;;;;5043700;28;20200;-76
2022/06/10 12:06:43;;;;;;;3.10;1.00;;;24.50;99.90;;;;;;5053666;28;20256;-76
2022/06/10 12:09:20;;;;;;;2.22;1.00;;;24.50;99.90;;;;;;5054007;28;20168;-77
2022/06/10 12:11:58;;;;;;;2.08;1.00;;;24.50;99.90;;;;;;5044704;28;20260;-76
2022/06/10 12:14:37;;;;;;;3.17;1.10;;;24.60;99.90;;;;;;5034738;28;20202;-76
2022/06/10 12:17:03;;;;;;;3.63;1.08;;;24.60;99.90;;;;;;5044557;28;20264;-76
2022/06/10 12:19:37;;;;;;;2.05;0.75;;;24.60;99.90;;;;;;5088868;28;20323;-77
2022/06/10 12:22:13;;;;;;;2.72;1.00;;;24.60;99.90;;;;;;5058589;28;20271;-76
2022/06/10 12:24:45;;;;;;;2.30;1.02;;;24.70;99.90;;;;;;5039165;28;20188;-76
2022/06/10 12:27:36;;;;;;;3.35;1.10;;;24.80;99.90;;;;;;5046548;28;20232;-75
2022/06/10 12:30:05;;;;;;;1.73;0.90;;;24.90;99.90;;;;;;5058007;28;20177;-75
2022/06/10 12:32:56;;;;;;;2.42;1.00;;;25.10;99.90;;;;;;5054659;28;20185;-76
2022/06/10 12:35:28;;;;;;;2.72;1.10;;;25.30;99.90;;;;;;5050386;28;20181;-75
2022/06/10 12:38:05;;;;;;;3.78;1.13;;;25.50;99.90;;;;;;5054985;28;20169;-75
2022/06/10 12:40:38;;;;;;;2.83;1.02;;;25.70;99.90;;;;;;5057759;28;20194;-75
2022/06/10 12:43:06;;;;;;;4.55;1.00;;;25.80;99.90;;;;;;5058177;28;20193;-76
2022/06/10 12:45:44;;;;;;;3.58;0.93;;;25.80;99.90;;;;;;5057273;28;20197;-76
2022/06/10 12:48:25;;;;;;;4.15;1.20;;;25.80;99.90;;;;;;5057790;28;20181;-76
2022/06/10 12:50:59;;;;;;;2.40;0.80;;;25.70;99.90;;;;;;5048006;28;20188;-77
2022/06/10 12:53:54;;;;;;;3.58;0.88;;;25.60;99.90;;;;;;5077792;28;20233;-77
2022/06/10 12:56:32;;;;;;;3.80;1.20;;;25.60;99.90;;;;;;5074754;28;20201;-77
2022/06/10 12:59:04;;;;;;;1.50;0.88;;;25.50;99.90;;;;;;5057656;28;20251;-76
2022/06/10 13:01:29;;;;;;;3.38;1.17;;;25.50;99.90;;;;;;5057634;28;20195;-77
2022/06/10 13:04:00;;;;;;;4.13;1.30;;;25.60;99.90;;;;;;5057229;28;20169;-76
2022/06/10 13:06:26;;;;;;;3.03;0.98;;;25.60;99.90;;;;;;5058021;28;20178;-76
2022/06/10 13:09:15;;;;;;;3.30;1.23;;;25.70;99.90;;;;;;5057417;28;20231;-77
2022/06/10 13:11:49;;;;;;;2.92;1.02;;;25.80;99.90;;;;;;5057212;28;20197;-79
2022/06/10 13:14:30;;;;;;;2.45;1.00;;;25.80;99.90;;;;;;5053132;28;20188;-76
2022/06/10 13:17:00;;;;;;;3.05;1.40;;;25.80;99.90;;;;;;5043145;28;20169;-78
2022/06/10 13:19:29;;;;;;;3.03;0.90;;;25.80;99.90;;;;;;5057577;28;20254;-77
2022/06/10 13:22:18;;;;;;;2.00;1.00;;;25.70;99.90;;;;;;5057149;28;20242;-77
2022/06/10 13:24:55;;;;;;;4.95;1.02;;;25.70;99.90;;;;;;5057310;28;20197;-77
2022/06/10 13:27:21;;;;;;;4.47;1.20;;;25.60;99.90;;;;;;5090153;28;20208;-71
2022/06/10 13:29:51;;;;;;;3.83;1.13;;;25.60;99.90;;;;;;5057224;28;20169;-71
2022/06/10 13:32:19;;;;;;;3.05;1.05;;;25.50;99.90;;;;;;5057965;28;20169;-69
2022/06/10 13:35:03;;;;;;;2.20;1.25;;;25.50;99.90;;;;;;5053514;28;20184;-70